createdAt,value
2022-11-05T00:00:07.934Z,101026.47
2022-11-05T00:02:52.812Z,101028.28
2022-11-05T00:05:37.885Z,101027.72
2022-11-05T00:08:23.497Z,101032.56
2022-11-05T00:10:50.064Z,101041.53
2022-11-05T00:13:36.082Z,101046.22
2022-11-05T00:16:21.149Z,101039.19
2022-11-05T00:19:06.473Z,101048.91
2022-11-05T00:21:52.810Z,101062.56
2022-11-05T00:24:37.563Z,101067.16
2022-11-05T00:27:04.381Z,101074.31
2022-11-05T00:29:30.957Z,101070.84
2022-11-05T00:31:57.566Z,101088.56
2022-11-05T00:34:24.217Z,101105.72
2022-11-05T00:36:50.608Z,101113.78
2022-11-05T00:39:17.230Z,101118.53
2022-11-05T00:41:43.666Z,101112.16
2022-11-05T00:44:28.771Z,101114.66
2022-11-05T00:47:15.151Z,101113.66
2022-11-05T00:49:41.738Z,101124.13
2022-11-05T00:52:26.770Z,101135.34
2022-11-05T00:54:53.177Z,101130.84
2022-11-05T00:57:19.577Z,101137.22
2022-11-05T00:59:45.959Z,101134.34
2022-11-05T01:02:12.482Z,101136.56
2022-11-05T01:04:38.954Z,101139.56
2022-11-05T01:07:05.360Z,101139.34
2022-11-05T01:09:31.780Z,101145.75
2022-11-05T01:11:58.173Z,101139.78
2022-11-05T01:14:24.587Z,101124.84
2022-11-05T01:16:51.039Z,101131.63
2022-11-05T01:19:17.459Z,101135.63
2022-11-05T01:21:43.872Z,101141.28
2022-11-05T01:24:11.089Z,101142.34
2022-11-05T01:26:37.479Z,101150.50
2022-11-05T01:29:03.896Z,101163.72
2022-11-05T01:31:30.449Z,101165.63
2022-11-05T01:33:57.015Z,101171.81
2022-11-05T01:36:23.473Z,101165.81
2022-11-05T01:38:49.930Z,101162.22
2022-11-05T01:41:16.321Z,101162.88
2022-11-05T01:43:48.680Z,101159.50
2022-11-05T01:46:18.051Z,101160.69
2022-11-05T01:48:44.598Z,101150.69
2022-11-05T01:51:18.774Z,101154.41
2022-11-05T01:53:57.140Z,101153.97
2022-11-05T01:56:28.749Z,101159.06
2022-11-05T01:59:09.486Z,101162.28
2022-11-05T02:01:36.033Z,101161.72
2022-11-05T02:04:08.602Z,101159.00
2022-11-05T02:06:39.429Z,101166.50
2022-11-05T02:09:16.539Z,101175.63
2022-11-05T02:11:43.010Z,101182.31
2022-11-05T02:14:09.470Z,101187.16
2022-11-05T02:16:46.542Z,101183.91
2022-11-05T02:19:55.085Z,101177.97
2022-11-05T02:22:40.221Z,101173.72
2022-11-05T02:25:54.342Z,101175.44
2022-11-05T02:29:11.854Z,101176.28
2022-11-05T02:31:43.971Z,101184.41
2022-11-05T02:34:19.908Z,101186.53
2022-11-05T02:37:09.672Z,101190.19
2022-11-05T02:39:48.523Z,101188.44
2022-11-05T02:42:36.464Z,101187.56
2022-11-05T02:45:17.430Z,101193.91
2022-11-05T02:47:59.235Z,101204.69
2022-11-05T02:50:53.921Z,101212.84
2022-11-05T02:53:48.529Z,101222.25
2022-11-05T02:56:24.285Z,101213.38
2022-11-05T02:58:50.712Z,101237.31
2022-11-05T03:01:17.457Z,101216.91
2022-11-05T03:03:48.423Z,101218.56
2022-11-05T03:06:58.891Z,101214.28
2022-11-05T03:09:25.238Z,101214.09
2022-11-05T03:12:09.976Z,101212.63
2022-11-05T03:14:45.434Z,101220.56
2022-11-05T03:17:37.940Z,101212.00
2022-11-05T03:20:10.406Z,101219.16
2022-11-05T03:22:51.592Z,101209.75
2022-11-05T03:25:22.672Z,101215.31
2022-11-05T03:27:55.949Z,101220.88
2022-11-05T03:30:22.453Z,101228.59
2022-11-05T03:32:59.262Z,101232.84
2022-11-05T03:35:31.442Z,101233.34
2022-11-05T03:38:03.535Z,101246.31
2022-11-05T03:40:35.906Z,101241.97
2022-11-05T03:43:06.412Z,101248.94
2022-11-05T03:45:38.701Z,101254.88
2022-11-05T03:48:07.975Z,101259.38
2022-11-05T03:50:42.133Z,101256.31
2022-11-05T03:53:18.518Z,101254.22
2022-11-05T03:55:59.345Z,101260.31
2022-11-05T03:58:27.007Z,101263.06
2022-11-05T04:00:53.661Z,101272.81
2022-11-05T04:03:20.078Z,101279.66
2022-11-05T04:06:09.844Z,101277.84
2022-11-05T04:08:54.844Z,101363.50
2022-11-05T04:11:39.550Z,101390.41
2022-11-05T04:14:05.942Z,101400.84
2022-11-05T04:16:50.878Z,101407.22
2022-11-05T04:19:37.241Z,101402.31
2022-11-05T04:22:22.338Z,101421.41
2022-11-05T04:24:48.760Z,101419.72
2022-11-05T04:27:15.199Z,101428.72
2022-11-05T04:30:00.348Z,101435.06
2022-11-05T04:32:26.795Z,101446.22
2022-11-05T04:34:53.186Z,101438.88
2022-11-05T04:37:19.617Z,101440.28
2022-11-05T04:39:46.006Z,101436.78
2022-11-05T04:42:12.416Z,101441.28
2022-11-05T04:44:38.838Z,101459.72
2022-11-05T04:47:05.247Z,101465.06
2022-11-05T04:49:31.629Z,101457.03
2022-11-05T04:51:58.025Z,101454.97
2022-11-05T04:54:24.428Z,101467.88
2022-11-05T04:56:50.821Z,101471.75
2022-11-05T04:59:17.374Z,101461.94
2022-11-05T05:01:43.871Z,101465.31
2022-11-05T05:04:10.298Z,101463.81
2022-11-05T05:06:38.305Z,101455.78
2022-11-05T05:09:04.681Z,101467.19
2022-11-05T05:11:31.071Z,101460.72
2022-11-05T05:13:57.713Z,101458.47
2022-11-05T05:16:26.142Z,101459.28
2022-11-05T05:18:53.542Z,101456.66
2022-11-05T05:21:41.326Z,101461.97
2022-11-05T05:24:18.561Z,101457.34
2022-11-05T05:26:47.515Z,101468.56
2022-11-05T05:29:14.673Z,101472.84
2022-11-05T05:31:41.686Z,101465.13
2022-11-05T05:34:11.338Z,101469.88
2022-11-05T05:36:37.774Z,101477.81
2022-11-05T05:39:10.687Z,101478.69
2022-11-05T05:41:37.106Z,101470.31
2022-11-05T05:44:05.467Z,101472.97
2022-11-05T05:46:31.941Z,101475.56
2022-11-05T05:48:58.359Z,101481.44
2022-11-05T05:51:24.740Z,101476.56
2022-11-05T05:53:51.170Z,101483.38
2022-11-05T05:56:20.471Z,101485.25
2022-11-05T05:58:47.844Z,101486.22
2022-11-05T06:01:19.373Z,101483.38
2022-11-05T06:03:47.661Z,101489.38
2022-11-05T06:06:15.113Z,101487.03
2022-11-05T06:08:42.324Z,101494.63
2022-11-05T06:11:09.451Z,101496.47
2022-11-05T06:13:36.969Z,101495.03
2022-11-05T06:16:06.440Z,101495.44
2022-11-05T06:18:33.802Z,101500.53
2022-11-05T06:21:08.075Z,101502.53
2022-11-05T06:23:36.258Z,101506.06
2022-11-05T06:26:08.412Z,101496.84
2022-11-05T06:28:35.432Z,101509.91
2022-11-05T06:31:01.950Z,101519.84
2022-11-05T06:33:28.540Z,101515.16
2022-11-05T06:35:58.566Z,101522.88
2022-11-05T06:38:25.258Z,101529.06
2022-11-05T06:40:51.712Z,101532.09
2022-11-05T06:43:18.121Z,101543.03
2022-11-05T06:45:44.529Z,101536.50
2022-11-05T06:48:10.924Z,101537.91
2022-11-05T06:50:37.308Z,101539.78
2022-11-05T06:53:04.679Z,101544.03
2022-11-05T06:55:31.854Z,101537.16
2022-11-05T06:57:58.819Z,101533.06
2022-11-05T07:00:25.644Z,101544.50
2022-11-05T07:02:52.073Z,101550.66
2022-11-05T07:05:18.510Z,101545.22
2022-11-05T07:07:45.634Z,101543.56
2022-11-05T07:10:17.511Z,101549.88
2022-11-05T07:12:44.144Z,101539.06
2022-11-05T07:15:12.225Z,101539.16
2022-11-05T07:17:39.995Z,101539.91
2022-11-05T07:20:08.287Z,101541.63
2022-11-05T07:22:35.226Z,101538.06
2022-11-05T07:25:02.122Z,101543.84
2022-11-05T07:27:29.085Z,101537.53
2022-11-05T07:29:55.535Z,101536.09
2022-11-05T07:32:21.922Z,101535.97
2022-11-05T07:34:48.539Z,101539.53
2022-11-05T07:37:16.637Z,101544.22
2022-11-05T07:39:43.116Z,101540.53
2022-11-05T07:42:13.407Z,101530.59
2022-11-05T07:44:39.933Z,101524.78
2022-11-05T07:47:06.414Z,101524.00
2022-11-05T07:49:32.816Z,101511.75
2022-11-05T07:51:59.306Z,101508.06
2022-11-05T07:54:26.701Z,101494.47
2022-11-05T07:56:53.099Z,101493.38
2022-11-05T07:59:19.649Z,101375.56
2022-11-05T08:01:46.151Z,101362.03
2022-11-05T08:04:12.794Z,101349.72
2022-11-05T08:06:39.210Z,101335.91
2022-11-05T08:09:05.635Z,101298.06
2022-11-05T08:11:32.198Z,101274.16
2022-11-05T08:13:58.772Z,101268.47
2022-11-05T08:16:25.181Z,101239.59
2022-11-05T08:18:51.658Z,101224.78
2022-11-05T08:21:18.085Z,101187.47
2022-11-05T08:23:45.191Z,101174.03
2022-11-05T08:26:11.684Z,101154.59
2022-11-05T08:28:38.121Z,101138.19
2022-11-05T08:31:04.628Z,101120.53
2022-11-05T08:33:31.450Z,101102.84
2022-11-05T08:36:02.209Z,101092.81
2022-11-05T08:38:28.840Z,101082.72
2022-11-05T08:40:57.538Z,101076.50
2022-11-05T08:43:24.128Z,101063.66
2022-11-05T08:45:50.602Z,101039.63
2022-11-05T08:48:18.476Z,101042.19
2022-11-05T08:50:46.497Z,101036.06
2022-11-05T08:53:14.093Z,101023.69
2022-11-05T08:55:40.928Z,101020.88
2022-11-05T08:58:14.945Z,101016.16
2022-11-05T09:00:42.206Z,101010.94
2022-11-05T09:03:09.663Z,101007.75
2022-11-05T09:05:39.140Z,100998.75
2022-11-05T09:08:10.394Z,100974.09
2022-11-05T09:10:37.929Z,100978.53
2022-11-05T09:13:04.861Z,100955.91
2022-11-05T09:15:32.243Z,100941.59
2022-11-05T09:17:59.208Z,100912.19
2022-11-05T09:20:25.774Z,100911.19
2022-11-05T09:22:52.407Z,100888.94
2022-11-05T09:25:18.972Z,100864.03
2022-11-05T09:27:45.498Z,100854.88
2022-11-05T09:30:13.375Z,100851.53
2022-11-05T09:32:40.263Z,100821.59
2022-11-05T09:35:07.158Z,100804.38
2022-11-05T09:37:33.630Z,100774.59
2022-11-05T09:40:00.097Z,100739.00
2022-11-05T09:42:34.628Z,100723.50
2022-11-05T09:45:05.264Z,100707.38
2022-11-05T09:47:43.354Z,100695.09
2022-11-05T09:50:18.723Z,100685.13
2022-11-05T09:52:45.601Z,100674.03
2022-11-05T09:55:22.059Z,100668.75
2022-11-05T09:58:01.237Z,100665.16
2022-11-05T10:00:30.280Z,100637.31
2022-11-05T10:03:14.305Z,100633.22
2022-11-05T10:05:41.464Z,100648.06
2022-11-05T10:08:17.610Z,100654.06
2022-11-05T10:10:51.530Z,100641.81
2022-11-05T10:13:38.363Z,100652.09
2022-11-05T10:16:28.550Z,100651.94
2022-11-05T10:19:04.517Z,100661.16
2022-11-05T10:21:59.644Z,100669.47
2022-11-05T10:24:20.261Z,100670.31
2022-11-05T10:26:49.527Z,100657.56
2022-11-05T10:29:32.383Z,100643.75
2022-11-05T10:32:01.342Z,100632.31
2022-11-05T10:34:33.286Z,100621.88
2022-11-05T10:36:59.963Z,100642.34
2022-11-05T10:39:27.861Z,100673.50
2022-11-05T10:42:10.770Z,100733.56
2022-11-05T10:45:01.362Z,100773.69
2022-11-05T10:47:48.353Z,100799.78
2022-11-05T10:50:27.367Z,100813.31
2022-11-05T10:53:04.977Z,100865.31
2022-11-05T10:55:37.737Z,100902.03
2022-11-05T10:58:18.043Z,100918.56
2022-11-05T11:00:51.525Z,100924.53
2022-11-05T11:03:51.251Z,100931.03
2022-11-05T11:06:26.074Z,100966.69
2022-11-05T11:08:55.708Z,100973.97
2022-11-05T11:11:28.962Z,101012.59
2022-11-05T11:14:01.580Z,101029.06
2022-11-05T11:16:33.405Z,101048.63
2022-11-05T11:19:01.675Z,101078.00
2022-11-05T11:21:29.000Z,101098.59
2022-11-05T11:23:57.802Z,101093.72
2022-11-05T11:26:28.041Z,101100.47
2022-11-05T11:28:57.249Z,101104.44
2022-11-05T11:31:29.220Z,101086.78
2022-11-05T11:34:01.014Z,101084.88
2022-11-05T11:36:43.024Z,101100.69
2022-11-05T11:39:30.416Z,101116.50
2022-11-05T11:42:00.458Z,101100.91
2022-11-05T11:44:32.651Z,101098.72
2022-11-05T11:47:09.123Z,101122.53
2022-11-05T11:49:41.590Z,101113.13
2022-11-05T11:52:19.363Z,101103.13
2022-11-05T11:54:45.884Z,101090.34
2022-11-05T11:57:42.170Z,101099.41
2022-11-05T12:00:09.954Z,101128.78
2022-11-05T12:02:48.420Z,101122.47
2022-11-05T12:05:30.660Z,101154.22
2022-11-05T12:08:06.585Z,101133.81
2022-11-05T12:10:56.396Z,101151.22
2022-11-05T12:13:43.813Z,101092.63
2022-11-05T12:16:15.708Z,101065.91
2022-11-05T12:18:54.479Z,101038.09
2022-11-05T12:21:52.488Z,101024.09
2022-11-05T12:24:32.333Z,101024.03
2022-11-05T12:27:36.184Z,101018.09
2022-11-05T12:30:09.348Z,101020.00
2022-11-05T12:33:07.085Z,101024.44
2022-11-05T12:36:03.965Z,101047.53
2022-11-05T12:38:56.446Z,101051.31
2022-11-05T12:41:33.517Z,101053.72
2022-11-05T12:44:37.918Z,101055.44
2022-11-05T12:47:13.382Z,101087.72
2022-11-05T12:50:12.045Z,101094.53
2022-11-05T12:53:01.222Z,101143.53
2022-11-05T12:55:35.983Z,101131.19
2022-11-05T12:58:12.936Z,101098.72
2022-11-05T13:00:45.252Z,101086.44
2022-11-05T13:03:47.150Z,101081.59
2022-11-05T13:06:17.244Z,101071.00
2022-11-05T13:09:02.230Z,101077.97
2022-11-05T13:11:31.557Z,101110.66
2022-11-05T13:14:15.047Z,101111.06
2022-11-05T13:16:49.604Z,101127.16
2022-11-05T13:19:18.886Z,101136.59
2022-11-05T13:21:49.965Z,101212.47
2022-11-05T13:24:31.010Z,101207.72
2022-11-05T13:27:37.761Z,101225.84
2022-11-05T13:30:06.709Z,101214.13
2022-11-05T13:32:37.202Z,101212.91
2022-11-05T13:35:07.150Z,101202.44
2022-11-05T13:38:00.325Z,101195.78
2022-11-05T13:40:45.173Z,101202.56
2022-11-05T13:43:56.027Z,101192.91
2022-11-05T13:46:40.477Z,101192.13
2022-11-05T13:49:28.690Z,101192.16
2022-11-05T13:52:03.825Z,101186.81
2022-11-05T13:54:45.521Z,101181.50
2022-11-05T13:57:41.351Z,101165.03
2022-11-05T14:00:22.809Z,101174.97
2022-11-05T14:02:57.764Z,101194.91
2022-11-05T14:05:35.367Z,101212.06
2022-11-05T14:08:10.071Z,101177.94
2022-11-05T14:11:07.655Z,101181.06
2022-11-05T14:13:42.321Z,101175.56
2022-11-05T14:16:16.356Z,101178.84
2022-11-05T14:18:45.258Z,101184.38
2022-11-05T14:21:27.088Z,101172.44
2022-11-05T14:23:56.686Z,101173.25
2022-11-05T14:26:32.129Z,101175.19
2022-11-05T14:28:58.599Z,101153.84
2022-11-05T14:32:08.271Z,101129.88
2022-11-05T14:34:54.025Z,101147.78
2022-11-05T14:37:30.048Z,101150.03
2022-11-05T14:40:01.321Z,101164.59
2022-11-05T14:42:29.464Z,101163.09
2022-11-05T14:45:05.894Z,101158.56
2022-11-05T14:47:37.174Z,101167.72
2022-11-05T14:50:29.629Z,101166.22
2022-11-05T14:52:58.399Z,101159.66
2022-11-05T14:55:33.813Z,101152.69
2022-11-05T14:58:03.378Z,101131.81
2022-11-05T15:00:29.748Z,101105.41
2022-11-05T15:03:01.657Z,101033.28
2022-11-05T15:05:31.062Z,100963.66
2022-11-05T15:07:58.502Z,100940.00
2022-11-05T15:10:35.265Z,100930.66
2022-11-05T15:13:06.269Z,100935.59
2022-11-05T15:15:43.455Z,100932.28
2022-11-05T15:18:30.419Z,100936.97
2022-11-05T15:21:00.551Z,100933.84
2022-11-05T15:23:35.548Z,100918.94
2022-11-05T15:26:11.754Z,100910.25
2022-11-05T15:28:45.745Z,100906.75
2022-11-05T15:31:12.261Z,100886.59
2022-11-05T15:33:43.113Z,100895.22
2022-11-05T15:36:31.922Z,100884.03
2022-11-05T15:41:46.797Z,100875.06
2022-11-05T15:44:31.172Z,100855.75
2022-11-05T15:47:20.274Z,100857.13
2022-11-05T15:49:54.192Z,100852.31
2022-11-05T15:52:23.197Z,100849.88
2022-11-05T15:55:08.573Z,100838.31
2022-11-05T15:57:39.394Z,100843.88
2022-11-05T16:00:15.606Z,100836.78
2022-11-05T16:02:42.455Z,100840.22
2022-11-05T16:05:14.047Z,100830.38
2022-11-05T16:07:45.369Z,100824.69
2022-11-05T16:10:33.475Z,100824.47
2022-11-05T16:13:18.711Z,100815.44
2022-11-05T16:15:55.311Z,100818.94
2022-11-05T16:18:24.344Z,100817.66
2022-11-05T16:21:02.477Z,100810.84
2022-11-05T16:23:42.923Z,100808.78
2022-11-05T16:27:02.160Z,100805.69
2022-11-05T16:29:28.652Z,100800.00
2022-11-05T16:31:57.152Z,100801.94
2022-11-05T16:34:40.386Z,100790.16
2022-11-05T16:37:17.042Z,100797.00
2022-11-05T16:39:43.506Z,100797.09
2022-11-05T16:42:22.144Z,100804.00
2022-11-05T16:44:57.638Z,100804.34
2022-11-05T16:47:26.216Z,100802.66
2022-11-05T16:49:52.978Z,100801.19
2022-11-05T16:52:19.469Z,100801.25
2022-11-05T16:54:45.898Z,100807.06
2022-11-05T16:57:26.988Z,100799.72
2022-11-05T16:59:55.044Z,100800.91
2022-11-05T17:02:21.725Z,100812.09
2022-11-05T17:04:48.310Z,100801.69
2022-11-05T17:07:14.786Z,100811.50
2022-11-05T17:09:41.713Z,100817.72
2022-11-05T17:12:10.943Z,100826.13
2022-11-05T17:14:37.921Z,100825.28
2022-11-05T17:17:04.985Z,100823.13
2022-11-05T17:19:31.860Z,100822.28
2022-11-05T17:21:58.354Z,100827.66
2022-11-05T17:24:24.792Z,100826.53
2022-11-05T17:26:51.297Z,100830.81
2022-11-05T17:29:17.692Z,100839.16
2022-11-05T17:31:44.091Z,100836.53
2022-11-05T17:34:10.727Z,100836.81
2022-11-05T17:36:37.143Z,100830.31
2022-11-05T17:39:04.143Z,100830.47
2022-11-05T17:41:30.647Z,100837.81
2022-11-05T17:43:57.596Z,100832.09
2022-11-05T17:46:26.239Z,100837.38
2022-11-05T17:48:52.809Z,100847.91
2022-11-05T17:51:19.832Z,100853.84
2022-11-05T17:53:48.503Z,100840.81
2022-11-05T17:56:30.504Z,100841.56
2022-11-05T17:59:00.587Z,100846.97
2022-11-05T18:01:30.319Z,100856.78
2022-11-05T18:03:57.518Z,100851.22
2022-11-05T18:06:24.018Z,100860.88
2022-11-05T18:08:50.564Z,100866.94
2022-11-05T18:11:17.586Z,100864.63
2022-11-05T18:13:44.111Z,100868.97
2022-11-05T18:16:10.684Z,100864.78
2022-11-05T18:18:37.411Z,100864.88
2022-11-05T18:21:04.264Z,100863.25
2022-11-05T18:23:30.749Z,100852.59
2022-11-05T18:25:57.339Z,100854.97
2022-11-05T18:28:23.850Z,100861.03
2022-11-05T18:30:51.304Z,100864.97
2022-11-05T18:33:17.915Z,100861.03
2022-11-05T18:35:44.767Z,100868.81
2022-11-05T18:38:11.694Z,100859.34
2022-11-05T18:40:38.426Z,100862.31
2022-11-05T18:43:04.850Z,100872.22
2022-11-05T18:45:33.377Z,100868.22
2022-11-05T18:48:01.321Z,100849.00
2022-11-05T18:50:28.525Z,100842.94
2022-11-05T18:52:54.956Z,100854.19
2022-11-05T18:55:23.301Z,100856.56
2022-11-05T18:57:49.717Z,100854.88
2022-11-05T19:00:16.993Z,100859.41
2022-11-05T19:02:43.791Z,100853.25
2022-11-05T19:07:56.885Z,100851.53
2022-11-05T19:10:23.482Z,100854.19
2022-11-05T19:12:50.461Z,100856.41
2022-11-05T19:15:17.289Z,100861.53
2022-11-05T19:17:43.798Z,100860.66
2022-11-05T19:20:10.669Z,100869.19
2022-11-05T19:22:37.505Z,100872.28
2022-11-05T19:25:04.866Z,100870.25
2022-11-05T19:27:31.402Z,100883.22
2022-11-05T19:29:57.993Z,100877.75
2022-11-05T19:32:24.530Z,100890.34
2022-11-05T19:34:50.944Z,100874.94
2022-11-05T19:37:17.505Z,100874.56
2022-11-05T19:39:44.017Z,100869.59
2022-11-05T19:42:10.492Z,100880.28
2022-11-05T19:44:37.121Z,100873.06
2022-11-05T19:47:03.773Z,100863.63
2022-11-05T19:49:30.236Z,100877.41
2022-11-05T19:51:56.843Z,100879.25
2022-11-05T19:54:23.448Z,100875.66
2022-11-05T19:56:51.741Z,100861.91
2022-11-05T19:59:18.299Z,100869.31
2022-11-05T20:01:44.987Z,100871.81
2022-11-05T20:04:12.014Z,100868.91
2022-11-05T20:06:40.119Z,100876.53
2022-11-05T20:09:27.457Z,100878.41
2022-11-05T20:11:56.518Z,100877.31
2022-11-05T20:14:24.296Z,100867.81
2022-11-05T20:16:51.033Z,100868.22
2022-11-05T20:19:20.118Z,100869.84
2022-11-05T20:21:47.176Z,100870.66
2022-11-05T20:24:22.280Z,100866.69
2022-11-05T20:26:50.153Z,100871.03
2022-11-05T20:29:16.708Z,100866.13
2022-11-05T20:31:43.218Z,100864.31
2022-11-05T20:34:10.751Z,100865.91
2022-11-05T20:36:38.438Z,100867.63
2022-11-05T20:39:05.706Z,100868.16
2022-11-05T20:41:33.238Z,100871.56
2022-11-05T20:43:59.782Z,100865.81
2022-11-05T20:46:26.231Z,100871.03
2022-11-05T20:48:53.895Z,100872.06
2022-11-05T20:51:22.550Z,100877.50
2022-11-05T20:53:49.318Z,100879.75
2022-11-05T20:56:20.123Z,100892.13
2022-11-05T20:58:47.398Z,100890.03
2022-11-05T21:01:16.444Z,100889.78
2022-11-05T21:03:43.998Z,100886.06
2022-11-05T21:06:11.554Z,100887.59
2022-11-05T21:08:38.080Z,100888.59
2022-11-05T21:11:05.274Z,100890.50
2022-11-05T21:13:31.735Z,100892.72
2022-11-05T21:16:00.069Z,100896.72
2022-11-05T21:18:28.124Z,100897.81
2022-11-05T21:20:55.267Z,100894.44
2022-11-05T21:23:22.062Z,100896.81
2022-11-05T21:25:51.194Z,100910.81
2022-11-05T21:28:17.608Z,100903.38
2022-11-05T21:30:45.895Z,100904.41
2022-11-05T21:33:13.086Z,100901.84
2022-11-05T21:35:41.094Z,100897.25
2022-11-05T21:38:07.515Z,100904.09
2022-11-05T21:40:33.937Z,100894.38
2022-11-05T21:43:00.317Z,100899.28
2022-11-05T21:45:27.132Z,100900.66
2022-11-05T21:47:53.610Z,100898.50
2022-11-05T21:50:22.009Z,100887.75
2022-11-05T21:53:07.360Z,100887.97
2022-11-05T21:55:52.362Z,100889.03
2022-11-05T21:58:37.764Z,100889.22
2022-11-05T22:01:04.284Z,100882.09
2022-11-05T22:03:30.675Z,100879.75
2022-11-05T22:05:57.495Z,100872.06
2022-11-05T22:08:24.028Z,100879.19
2022-11-05T22:10:50.449Z,100891.53
2022-11-05T22:13:16.900Z,100879.66
2022-11-05T22:15:43.287Z,100880.22
2022-11-05T22:18:09.983Z,100887.00
2022-11-05T22:20:38.679Z,100878.28
2022-11-05T22:23:10.039Z,100881.84
2022-11-05T22:25:37.825Z,100876.09
2022-11-05T22:28:04.553Z,100880.63
2022-11-05T22:30:34.545Z,100876.19
2022-11-05T22:33:01.420Z,100863.47
2022-11-05T22:35:28.358Z,100867.16
2022-11-05T22:37:54.785Z,100868.31
2022-11-05T22:40:23.813Z,100868.06
2022-11-05T22:42:50.735Z,100858.94
2022-11-05T22:45:17.233Z,100863.28
2022-11-05T22:47:43.772Z,100861.63
2022-11-05T22:50:10.440Z,100859.84
2022-11-05T22:52:36.906Z,100864.56
2022-11-05T22:55:06.074Z,100854.63
2022-11-05T22:57:32.749Z,100858.97
2022-11-05T22:59:59.251Z,100853.06
2022-11-05T23:02:25.805Z,100849.66
2022-11-05T23:04:52.406Z,100851.66
2022-11-05T23:07:37.229Z,100855.63
2022-11-05T23:10:22.181Z,100856.09
2022-11-05T23:12:48.913Z,100854.75
2022-11-05T23:15:35.293Z,100849.72
2022-11-05T23:18:20.453Z,100862.78
2022-11-05T23:21:05.664Z,100854.75
2022-11-05T23:23:50.442Z,100848.25
2022-11-05T23:26:35.434Z,100845.97
2022-11-05T23:29:01.905Z,100848.88
2022-11-05T23:31:46.865Z,100841.88
2022-11-05T23:34:13.305Z,100849.78
2022-11-05T23:36:58.290Z,100848.97
2022-11-05T23:39:24.681Z,100851.03
2022-11-05T23:42:09.692Z,100856.94
2022-11-05T23:44:54.637Z,100862.09
2022-11-05T23:47:39.436Z,100853.56
2022-11-05T23:50:06.170Z,100849.59
2022-11-05T23:52:32.595Z,100850.09
2022-11-05T23:54:59.081Z,100846.38
2022-11-05T23:57:25.525Z,100851.06
2022-11-05T23:59:51.911Z,100839.72
